sensor_id;sensor_type;location;lat;lon;timestamp;P1;durP1;ratioP1;P2;durP2;ratioP2
20725;SDS011;10524;48.132;8.518;2022-09-16T00:01:19;18.98;;;13.38;;
20725;SDS011;10524;48.132;8.518;2022-09-16T00:03:46;16.15;;;12.57;;
20725;SDS011;10524;48.132;8.518;2022-09-16T00:06:22;16.58;;;13.38;;
20725;SDS011;10524;48.132;8.518;2022-09-16T00:08:49;19.42;;;15.38;;
20725;SDS011;10524;48.132;8.518;2022-09-16T00:11:16;19.38;;;14.55;;
20725;SDS011;10524;48.132;8.518;2022-09-16T00:13:43;19.45;;;14.15;;
20725;SDS011;10524;48.132;8.518;2022-09-16T00:16:10;15.85;;;13.60;;
20725;SDS011;10524;48.132;8.518;2022-09-16T00:18:46;19.77;;;14.52;;
20725;SDS011;10524;48.132;8.518;2022-09-16T00:21:13;17.80;;;13.82;;
20725;SDS011;10524;48.132;8.518;2022-09-16T00:23:39;17.13;;;13.80;;
20725;SDS011;10524;48.132;8.518;2022-09-16T00:26:05;20.95;;;13.70;;
20725;SDS011;10524;48.132;8.518;2022-09-16T00:28:30;21.65;;;14.23;;
20725;SDS011;10524;48.132;8.518;2022-09-16T00:30:59;20.13;;;13.90;;
20725;SDS011;10524;48.132;8.518;2022-09-16T00:33:25;21.67;;;13.63;;
20725;SDS011;10524;48.132;8.518;2022-09-16T00:35:51;16.17;;;13.77;;
20725;SDS011;10524;48.132;8.518;2022-09-16T00:38:17;17.80;;;14.02;;
20725;SDS011;10524;48.132;8.518;2022-09-16T00:40:44;19.88;;;14.25;;
20725;SDS011;10524;48.132;8.518;2022-09-16T00:43:12;20.75;;;16.27;;
20725;SDS011;10524;48.132;8.518;2022-09-16T00:45:39;26.90;;;18.70;;
20725;SDS011;10524;48.132;8.518;2022-09-16T00:48:08;28.20;;;19.35;;
20725;SDS011;10524;48.132;8.518;2022-09-16T00:50:40;29.08;;;20.50;;
20725;SDS011;10524;48.132;8.518;2022-09-16T00:53:14;26.02;;;18.73;;
20725;SDS011;10524;48.132;8.518;2022-09-16T00:55:43;28.50;;;19.83;;
20725;SDS011;10524;48.132;8.518;2022-09-16T00:58:14;24.15;;;18.58;;
20725;SDS011;10524;48.132;8.518;2022-09-16T01:00:49;29.38;;;18.67;;
20725;SDS011;10524;48.132;8.518;2022-09-16T01:03:15;29.23;;;18.92;;
20725;SDS011;10524;48.132;8.518;2022-09-16T01:05:41;21.10;;;16.58;;
20725;SDS011;10524;48.132;8.518;2022-09-16T01:08:08;22.95;;;16.52;;
20725;SDS011;10524;48.132;8.518;2022-09-16T01:10:33;19.55;;;15.38;;
20725;SDS011;10524;48.132;8.518;2022-09-16T01:13:01;19.92;;;15.05;;
20725;SDS011;10524;48.132;8.518;2022-09-16T01:15:32;19.85;;;13.98;;
20725;SDS011;10524;48.132;8.518;2022-09-16T01:31:46;19.85;;;15.23;;
20725;SDS011;10524;48.132;8.518;2022-09-16T01:46:03;24.13;;;17.48;;
20725;SDS011;10524;48.132;8.518;2022-09-16T01:57:11;21.60;;;15.13;;
20725;SDS011;10524;48.132;8.518;2022-09-16T01:59:59;24.10;;;16.85;;
20725;SDS011;10524;48.132;8.518;2022-09-16T02:02:40;22.92;;;16.33;;
20725;SDS011;10524;48.132;8.518;2022-09-16T02:05:17;23.42;;;16.98;;
20725;SDS011;10524;48.132;8.518;2022-09-16T02:07:51;22.13;;;16.92;;
20725;SDS011;10524;48.132;8.518;2022-09-16T02:10:28;20.63;;;15.45;;
20725;SDS011;10524;48.132;8.518;2022-09-16T02:12:58;20.05;;;15.27;;
20725;SDS011;10524;48.132;8.518;2022-09-16T02:15:29;25.05;;;16.45;;
20725;SDS011;10524;48.132;8.518;2022-09-16T02:18:06;25.92;;;16.63;;
20725;SDS011;10524;48.132;8.518;2022-09-16T02:20:37;25.42;;;17.95;;
20725;SDS011;10524;48.132;8.518;2022-09-16T02:23:08;23.15;;;16.80;;
20725;SDS011;10524;48.132;8.518;2022-09-16T02:25:40;23.40;;;18.08;;
20725;SDS011;10524;48.132;8.518;2022-09-16T02:28:09;21.52;;;16.50;;
20725;SDS011;10524;48.132;8.518;2022-09-16T02:30:44;23.67;;;16.27;;
20725;SDS011;10524;48.132;8.518;2022-09-16T02:33:15;22.35;;;14.93;;
20725;SDS011;10524;48.132;8.518;2022-09-16T02:35:43;23.23;;;15.90;;
20725;SDS011;10524;48.132;8.518;2022-09-16T02:38:20;28.25;;;17.60;;
20725;SDS011;10524;48.132;8.518;2022-09-16T02:40:55;25.08;;;17.05;;
20725;SDS011;10524;48.132;8.518;2022-09-16T02:43:22;29.25;;;17.02;;
20725;SDS011;10524;48.132;8.518;2022-09-16T02:45:56;24.15;;;17.33;;
20725;SDS011;10524;48.132;8.518;2022-09-16T02:59:39;22.55;;;15.57;;
20725;SDS011;10524;48.132;8.518;2022-09-16T03:02:06;21.92;;;15.13;;
20725;SDS011;10524;48.132;8.518;2022-09-16T03:04:33;20.08;;;15.52;;
20725;SDS011;10524;48.132;8.518;2022-09-16T03:06:59;21.05;;;15.25;;
20725;SDS011;10524;48.132;8.518;2022-09-16T03:09:25;21.27;;;15.43;;
20725;SDS011;10524;48.132;8.518;2022-09-16T03:28:44;22.27;;;15.02;;
20725;SDS011;10524;48.132;8.518;2022-09-16T03:31:31;19.40;;;14.33;;
20725;SDS011;10524;48.132;8.518;2022-09-16T03:34:04;19.95;;;15.60;;
20725;SDS011;10524;48.132;8.518;2022-09-16T03:36:53;23.85;;;17.15;;
20725;SDS011;10524;48.132;8.518;2022-09-16T03:39:24;24.63;;;17.98;;
20725;SDS011;10524;48.132;8.518;2022-09-16T03:41:50;28.45;;;18.73;;
20725;SDS011;10524;48.132;8.518;2022-09-16T03:44:15;29.85;;;18.15;;
20725;SDS011;10524;48.132;8.518;2022-09-16T03:46:41;21.80;;;15.90;;
20725;SDS011;10524;48.132;8.518;2022-09-16T03:49:07;24.27;;;17.23;;
20725;SDS011;10524;48.132;8.518;2022-09-16T03:51:32;23.77;;;17.02;;
20725;SDS011;10524;48.132;8.518;2022-09-16T03:53:58;20.02;;;15.35;;
20725;SDS011;10524;48.132;8.518;2022-09-16T03:56:24;20.35;;;15.10;;
20725;SDS011;10524;48.132;8.518;2022-09-16T03:58:49;18.40;;;14.93;;
20725;SDS011;10524;48.132;8.518;2022-09-16T04:01:15;21.23;;;14.93;;
20725;SDS011;10524;48.132;8.518;2022-09-16T04:03:41;19.33;;;14.93;;
20725;SDS011;10524;48.132;8.518;2022-09-16T04:06:07;21.70;;;15.40;;
20725;SDS011;10524;48.132;8.518;2022-09-16T04:08:33;22.50;;;15.75;;
20725;SDS011;10524;48.132;8.518;2022-09-16T04:11:00;22.23;;;15.30;;
20725;SDS011;10524;48.132;8.518;2022-09-16T04:13:33;22.73;;;16.83;;
20725;SDS011;10524;48.132;8.518;2022-09-16T04:15:59;20.30;;;15.75;;
20725;SDS011;10524;48.132;8.518;2022-09-16T04:18:26;19.65;;;15.98;;
20725;SDS011;10524;48.132;8.518;2022-09-16T04:20:57;21.85;;;16.38;;
20725;SDS011;10524;48.132;8.518;2022-09-16T04:23:25;18.00;;;14.80;;
20725;SDS011;10524;48.132;8.518;2022-09-16T04:25:55;22.75;;;16.33;;
20725;SDS011;10524;48.132;8.518;2022-09-16T04:28:22;20.63;;;14.73;;
20725;SDS011;10524;48.132;8.518;2022-09-16T04:30:47;19.98;;;14.65;;
20725;SDS011;10524;48.132;8.518;2022-09-16T04:33:13;20.77;;;15.10;;
20725;SDS011;10524;48.132;8.518;2022-09-16T04:35:38;21.38;;;16.83;;
20725;SDS011;10524;48.132;8.518;2022-09-16T04:38:04;21.63;;;16.05;;
20725;SDS011;10524;48.132;8.518;2022-09-16T04:40:30;19.83;;;16.40;;
20725;SDS011;10524;48.132;8.518;2022-09-16T04:42:55;21.45;;;16.75;;
20725;SDS011;10524;48.132;8.518;2022-09-16T04:45:21;19.85;;;15.68;;
20725;SDS011;10524;48.132;8.518;2022-09-16T04:47:46;20.63;;;15.50;;
20725;SDS011;10524;48.132;8.518;2022-09-16T04:50:12;23.35;;;17.05;;
20725;SDS011;10524;48.132;8.518;2022-09-16T04:52:38;23.92;;;18.40;;
20725;SDS011;10524;48.132;8.518;2022-09-16T04:55:03;26.50;;;18.40;;
20725;SDS011;10524;48.132;8.518;2022-09-16T04:57:30;20.25;;;16.63;;
20725;SDS011;10524;48.132;8.518;2022-09-16T04:59:58;23.23;;;18.52;;
20725;SDS011;10524;48.132;8.518;2022-09-16T05:02:24;24.77;;;17.95;;
20725;SDS011;10524;48.132;8.518;2022-09-16T05:04:49;25.33;;;17.83;;
20725;SDS011;10524;48.132;8.518;2022-09-16T05:07:15;24.75;;;17.95;;
20725;SDS011;10524;48.132;8.518;2022-09-16T05:09:41;22.02;;;16.92;;
20725;SDS011;10524;48.132;8.518;2022-09-16T05:12:07;23.63;;;17.42;;
20725;SDS011;10524;48.132;8.518;2022-09-16T05:14:32;21.02;;;15.88;;
20725;SDS011;10524;48.132;8.518;2022-09-16T05:16:58;18.05;;;14.77;;
20725;SDS011;10524;48.132;8.518;2022-09-16T05:19:24;21.83;;;15.50;;
20725;SDS011;10524;48.132;8.518;2022-09-16T05:21:49;19.98;;;14.68;;
20725;SDS011;10524;48.132;8.518;2022-09-16T05:24:15;22.50;;;15.50;;
20725;SDS011;10524;48.132;8.518;2022-09-16T05:26:41;21.05;;;15.40;;
20725;SDS011;10524;48.132;8.518;2022-09-16T05:29:10;25.25;;;16.80;;
20725;SDS011;10524;48.132;8.518;2022-09-16T05:31:38;20.05;;;15.18;;
20725;SDS011;10524;48.132;8.518;2022-09-16T05:34:06;19.60;;;15.75;;
20725;SDS011;10524;48.132;8.518;2022-09-16T05:36:46;19.52;;;16.02;;
20725;SDS011;10524;48.132;8.518;2022-09-16T05:39:13;18.25;;;15.27;;
20725;SDS011;10524;48.132;8.518;2022-09-16T05:41:41;20.55;;;16.83;;
20725;SDS011;10524;48.132;8.518;2022-09-16T05:44:07;25.67;;;18.65;;
20725;SDS011;10524;48.132;8.518;2022-09-16T05:46:33;23.55;;;18.38;;
20725;SDS011;10524;48.132;8.518;2022-09-16T05:48:59;24.00;;;17.50;;
20725;SDS011;10524;48.132;8.518;2022-09-16T05:51:25;23.85;;;17.42;;
20725;SDS011;10524;48.132;8.518;2022-09-16T05:53:51;24.25;;;15.35;;
20725;SDS011;10524;48.132;8.518;2022-09-16T05:56:19;18.10;;;14.32;;
20725;SDS011;10524;48.132;8.518;2022-09-16T05:58:50;21.95;;;16.17;;
20725;SDS011;10524;48.132;8.518;2022-09-16T06:01:20;20.35;;;14.20;;
20725;SDS011;10524;48.132;8.518;2022-09-16T06:03:48;17.17;;;14.82;;
20725;SDS011;10524;48.132;8.518;2022-09-16T06:06:17;20.27;;;16.25;;
20725;SDS011;10524;48.132;8.518;2022-09-16T06:08:52;21.42;;;17.15;;
20725;SDS011;10524;48.132;8.518;2022-09-16T06:11:19;21.17;;;17.65;;
20725;SDS011;10524;48.132;8.518;2022-09-16T06:13:45;22.55;;;17.73;;
20725;SDS011;10524;48.132;8.518;2022-09-16T06:16:11;22.98;;;17.05;;
20725;SDS011;10524;48.132;8.518;2022-09-16T06:18:38;19.52;;;16.30;;
20725;SDS011;10524;48.132;8.518;2022-09-16T06:21:09;18.42;;;15.18;;
20725;SDS011;10524;48.132;8.518;2022-09-16T06:23:36;22.02;;;18.58;;
20725;SDS011;10524;48.132;8.518;2022-09-16T06:26:04;22.55;;;18.05;;
20725;SDS011;10524;48.132;8.518;2022-09-16T06:28:33;21.65;;;17.58;;
20725;SDS011;10524;48.132;8.518;2022-09-16T06:31:00;21.83;;;17.33;;
20725;SDS011;10524;48.132;8.518;2022-09-16T06:33:34;19.10;;;15.38;;
20725;SDS011;10524;48.132;8.518;2022-09-16T06:36:18;18.38;;;15.07;;
20725;SDS011;10524;48.132;8.518;2022-09-16T06:38:48;18.70;;;15.05;;
20725;SDS011;10524;48.132;8.518;2022-09-16T06:41:15;18.75;;;14.50;;
20725;SDS011;10524;48.132;8.518;2022-09-16T06:43:43;21.30;;;15.88;;
20725;SDS011;10524;48.132;8.518;2022-09-16T06:46:12;17.65;;;15.38;;
20725;SDS011;10524;48.132;8.518;2022-09-16T06:48:43;26.08;;;20.10;;
20725;SDS011;10524;48.132;8.518;2022-09-16T06:51:12;26.48;;;19.90;;
20725;SDS011;10524;48.132;8.518;2022-09-16T06:53:41;24.50;;;18.77;;
20725;SDS011;10524;48.132;8.518;2022-09-16T06:56:08;26.85;;;18.20;;
20725;SDS011;10524;48.132;8.518;2022-09-16T06:58:37;23.83;;;17.98;;
20725;SDS011;10524;48.132;8.518;2022-09-16T07:01:11;21.58;;;18.42;;
20725;SDS011;10524;48.132;8.518;2022-09-16T07:03:40;22.27;;;17.85;;
20725;SDS011;10524;48.132;8.518;2022-09-16T07:06:07;21.80;;;18.05;;
20725;SDS011;10524;48.132;8.518;2022-09-16T07:08:34;26.35;;;19.98;;
20725;SDS011;10524;48.132;8.518;2022-09-16T07:11:02;29.55;;;21.30;;
20725;SDS011;10524;48.132;8.518;2022-09-16T07:13:29;40.55;;;26.30;;
20725;SDS011;10524;48.132;8.518;2022-09-16T07:16:28;30.38;;;21.85;;
20725;SDS011;10524;48.132;8.518;2022-09-16T07:18:51;25.20;;;19.88;;
20725;SDS011;10524;48.132;8.518;2022-09-16T07:21:18;24.00;;;19.50;;
20725;SDS011;10524;48.132;8.518;2022-09-16T07:23:45;23.15;;;18.65;;
20725;SDS011;10524;48.132;8.518;2022-09-16T07:26:13;24.00;;;19.75;;
20725;SDS011;10524;48.132;8.518;2022-09-16T07:28:47;22.73;;;17.92;;
20725;SDS011;10524;48.132;8.518;2022-09-16T07:31:18;21.60;;;17.02;;
20725;SDS011;10524;48.132;8.518;2022-09-16T07:33:46;19.77;;;17.25;;
20725;SDS011;10524;48.132;8.518;2022-09-16T07:36:15;21.15;;;17.98;;
20725;SDS011;10524;48.132;8.518;2022-09-16T07:38:42;20.75;;;17.55;;
20725;SDS011;10524;48.132;8.518;2022-09-16T07:41:12;32.92;;;22.92;;
20725;SDS011;10524;48.132;8.518;2022-09-16T07:43:40;27.67;;;20.57;;
20725;SDS011;10524;48.132;8.518;2022-09-16T07:46:07;21.02;;;16.05;;
20725;SDS011;10524;48.132;8.518;2022-09-16T07:48:34;18.90;;;16.02;;
20725;SDS011;10524;48.132;8.518;2022-09-16T07:51:02;16.48;;;14.10;;
20725;SDS011;10524;48.132;8.518;2022-09-16T07:53:33;16.58;;;13.45;;
20725;SDS011;10524;48.132;8.518;2022-09-16T07:56:06;17.45;;;13.55;;
20725;SDS011;10524;48.132;8.518;2022-09-16T07:58:39;15.98;;;14.20;;
20725;SDS011;10524;48.132;8.518;2022-09-16T08:01:05;13.18;;;11.43;;
20725;SDS011;10524;48.132;8.518;2022-09-16T08:03:35;11.50;;;10.30;;
20725;SDS011;10524;48.132;8.518;2022-09-16T08:06:12;10.25;;;9.20;;
20725;SDS011;10524;48.132;8.518;2022-09-16T08:08:52;11.15;;;10.05;;
20725;SDS011;10524;48.132;8.518;2022-09-16T08:11:22;10.90;;;9.70;;
20725;SDS011;10524;48.132;8.518;2022-09-16T08:13:48;9.73;;;8.75;;
20725;SDS011;10524;48.132;8.518;2022-09-16T08:16:15;12.00;;;9.80;;
20725;SDS011;10524;48.132;8.518;2022-09-16T08:18:42;11.70;;;9.20;;
20725;SDS011;10524;48.132;8.518;2022-09-16T08:21:12;7.55;;;6.28;;
20725;SDS011;10524;48.132;8.518;2022-09-16T08:23:40;5.32;;;3.58;;
20725;SDS011;10524;48.132;8.518;2022-09-16T08:26:06;4.25;;;3.03;;
20725;SDS011;10524;48.132;8.518;2022-09-16T08:28:33;2.70;;;2.50;;
20725;SDS011;10524;48.132;8.518;2022-09-16T08:30:59;3.25;;;2.00;;
20725;SDS011;10524;48.132;8.518;2022-09-16T08:33:26;2.92;;;1.95;;
20725;SDS011;10524;48.132;8.518;2022-09-16T08:35:59;1.80;;;1.70;;
20725;SDS011;10524;48.132;8.518;2022-09-16T08:38:26;1.50;;;1.40;;
20725;SDS011;10524;48.132;8.518;2022-09-16T08:40:55;1.42;;;0.95;;
20725;SDS011;10524;48.132;8.518;2022-09-16T08:43:43;3.40;;;1.00;;
20725;SDS011;10524;48.132;8.518;2022-09-16T08:46:33;1.00;;;1.00;;
20725;SDS011;10524;48.132;8.518;2022-09-16T08:52:45;1.48;;;1.35;;
20725;SDS011;10524;48.132;8.518;2022-09-16T08:54:53;1.60;;;1.50;;
20725;SDS011;10524;48.132;8.518;2022-09-16T08:57:24;1.95;;;1.85;;
20725;SDS011;10524;48.132;8.518;2022-09-16T08:59:53;2.10;;;1.88;;
20725;SDS011;10524;48.132;8.518;2022-09-16T09:05:24;3.58;;;2.53;;
20725;SDS011;10524;48.132;8.518;2022-09-16T09:13:48;2.50;;;2.15;;
20725;SDS011;10524;48.132;8.518;2022-09-16T09:16:30;2.53;;;2.33;;
20725;SDS011;10524;48.132;8.518;2022-09-16T09:22:12;2.72;;;2.00;;
20725;SDS011;10524;48.132;8.518;2022-09-16T09:30:26;1.80;;;1.70;;
20725;SDS011;10524;48.132;8.518;2022-09-16T09:41:10;1.38;;;1.00;;
20725;SDS011;10524;48.132;8.518;2022-09-16T09:49:09;1.20;;;1.10;;
20725;SDS011;10524;48.132;8.518;2022-09-16T09:51:53;1.40;;;1.23;;
20725;SDS011;10524;48.132;8.518;2022-09-16T09:54:30;1.40;;;1.30;;
20725;SDS011;10524;48.132;8.518;2022-09-16T10:02:06;2.38;;;1.65;;
20725;SDS011;10524;48.132;8.518;2022-09-16T10:04:52;2.10;;;1.60;;
20725;SDS011;10524;48.132;8.518;2022-09-16T10:07:20;2.05;;;1.60;;
20725;SDS011;10524;48.132;8.518;2022-09-16T10:09:55;1.63;;;1.52;;
20725;SDS011;10524;48.132;8.518;2022-09-16T10:12:25;1.67;;;1.58;;
20725;SDS011;10524;48.132;8.518;2022-09-16T10:14:52;1.90;;;1.50;;
20725;SDS011;10524;48.132;8.518;2022-09-16T10:17:18;2.80;;;1.67;;
20725;SDS011;10524;48.132;8.518;2022-09-16T10:19:54;4.30;;;2.60;;
20725;SDS011;10524;48.132;8.518;2022-09-16T10:22:29;4.00;;;2.97;;
20725;SDS011;10524;48.132;8.518;2022-09-16T10:24:59;4.63;;;2.85;;
20725;SDS011;10524;48.132;8.518;2022-09-16T10:27:27;4.18;;;2.90;;
20725;SDS011;10524;48.132;8.518;2022-09-16T10:30:11;3.78;;;2.40;;
20725;SDS011;10524;48.132;8.518;2022-09-16T10:32:58;3.25;;;2.88;;
20725;SDS011;10524;48.132;8.518;2022-09-16T10:35:33;3.70;;;2.30;;
20725;SDS011;10524;48.132;8.518;2022-09-16T10:38:01;3.42;;;2.60;;
20725;SDS011;10524;48.132;8.518;2022-09-16T10:40:28;4.72;;;2.75;;
20725;SDS011;10524;48.132;8.518;2022-09-16T10:42:58;2.75;;;2.20;;
20725;SDS011;10524;48.132;8.518;2022-09-16T10:45:47;3.83;;;2.30;;
20725;SDS011;10524;48.132;8.518;2022-09-16T10:48:16;3.92;;;2.33;;
20725;SDS011;10524;48.132;8.518;2022-09-16T10:50:57;3.40;;;2.53;;
20725;SDS011;10524;48.132;8.518;2022-09-16T10:53:31;3.10;;;2.00;;
20725;SDS011;10524;48.132;8.518;2022-09-16T10:56:00;3.83;;;2.30;;
20725;SDS011;10524;48.132;8.518;2022-09-16T10:58:27;2.70;;;2.17;;
20725;SDS011;10524;48.132;8.518;2022-09-16T11:03:40;4.38;;;2.00;;
20725;SDS011;10524;48.132;8.518;2022-09-16T11:30:18;2.67;;;2.13;;
20725;SDS011;10524;48.132;8.518;2022-09-16T11:41:07;5.88;;;2.10;;
20725;SDS011;10524;48.132;8.518;2022-09-16T11:49:26;4.05;;;2.70;;
20725;SDS011;10524;48.132;8.518;2022-09-16T11:55:05;4.90;;;2.65;;
20725;SDS011;10524;48.132;8.518;2022-09-16T11:57:57;4.97;;;2.92;;
20725;SDS011;10524;48.132;8.518;2022-09-16T12:00:26;3.45;;;2.33;;
20725;SDS011;10524;48.132;8.518;2022-09-16T12:03:07;3.25;;;2.30;;
20725;SDS011;10524;48.132;8.518;2022-09-16T12:06:03;3.65;;;2.67;;
20725;SDS011;10524;48.132;8.518;2022-09-16T12:08:56;4.78;;;2.75;;
20725;SDS011;10524;48.132;8.518;2022-09-16T12:11:33;5.20;;;2.75;;
20725;SDS011;10524;48.132;8.518;2022-09-16T12:16:51;6.20;;;2.85;;
20725;SDS011;10524;48.132;8.518;2022-09-16T12:19:28;5.40;;;2.67;;
20725;SDS011;10524;48.132;8.518;2022-09-16T12:22:08;4.07;;;2.72;;
20725;SDS011;10524;48.132;8.518;2022-09-16T12:29:59;5.50;;;2.67;;
20725;SDS011;10524;48.132;8.518;2022-09-16T12:35:11;6.93;;;3.15;;
20725;SDS011;10524;48.132;8.518;2022-09-16T12:37:45;9.80;;;3.10;;
20725;SDS011;10524;48.132;8.518;2022-09-16T12:42:54;5.47;;;2.85;;
20725;SDS011;10524;48.132;8.518;2022-09-16T12:50:51;7.55;;;3.60;;
20725;SDS011;10524;48.132;8.518;2022-09-16T13:01:57;5.78;;;3.08;;
20725;SDS011;10524;48.132;8.518;2022-09-16T13:07:01;3.17;;;2.80;;
20725;SDS011;10524;48.132;8.518;2022-09-16T13:09:29;5.10;;;2.80;;
20725;SDS011;10524;48.132;8.518;2022-09-16T13:14:32;4.90;;;2.78;;
20725;SDS011;10524;48.132;8.518;2022-09-16T13:17:02;5.97;;;2.85;;
20725;SDS011;10524;48.132;8.518;2022-09-16T13:19:43;5.90;;;3.30;;
20725;SDS011;10524;48.132;8.518;2022-09-16T13:22:24;4.45;;;3.13;;
20725;SDS011;10524;48.132;8.518;2022-09-16T13:24:59;4.40;;;3.03;;
20725;SDS011;10524;48.132;8.518;2022-09-16T13:27:56;7.28;;;3.40;;
20725;SDS011;10524;48.132;8.518;2022-09-16T13:30:25;5.45;;;3.22;;
20725;SDS011;10524;48.132;8.518;2022-09-16T13:37:48;5.57;;;3.50;;
20725;SDS011;10524;48.132;8.518;2022-09-16T13:40:22;5.30;;;3.88;;
20725;SDS011;10524;48.132;8.518;2022-09-16T13:42:49;5.38;;;3.78;;
20725;SDS011;10524;48.132;8.518;2022-09-16T13:48:04;7.80;;;3.63;;
20725;SDS011;10524;48.132;8.518;2022-09-16T13:50:45;4.65;;;3.28;;
20725;SDS011;10524;48.132;8.518;2022-09-16T13:53:23;4.97;;;3.63;;
20725;SDS011;10524;48.132;8.518;2022-09-16T13:59:05;7.63;;;3.80;;
20725;SDS011;10524;48.132;8.518;2022-09-16T14:01:46;6.40;;;3.85;;
20725;SDS011;10524;48.132;8.518;2022-09-16T14:09:40;5.13;;;4.18;;
20725;SDS011;10524;48.132;8.518;2022-09-16T14:12:23;6.60;;;3.80;;
20725;SDS011;10524;48.132;8.518;2022-09-16T14:14:58;5.97;;;3.70;;
20725;SDS011;10524;48.132;8.518;2022-09-16T14:17:25;4.28;;;3.83;;
20725;SDS011;10524;48.132;8.518;2022-09-16T14:19:56;5.25;;;3.60;;
20725;SDS011;10524;48.132;8.518;2022-09-16T14:22:24;4.60;;;3.70;;
20725;SDS011;10524;48.132;8.518;2022-09-16T14:24:52;5.00;;;3.58;;
20725;SDS011;10524;48.132;8.518;2022-09-16T14:27:26;7.75;;;3.88;;
20725;SDS011;10524;48.132;8.518;2022-09-16T14:30:02;5.53;;;3.10;;
20725;SDS011;10524;48.132;8.518;2022-09-16T14:32:31;6.13;;;3.72;;
20725;SDS011;10524;48.132;8.518;2022-09-16T14:35:02;6.85;;;3.63;;
20725;SDS011;10524;48.132;8.518;2022-09-16T14:37:33;4.32;;;3.20;;
20725;SDS011;10524;48.132;8.518;2022-09-16T14:40:13;3.78;;;3.05;;
20725;SDS011;10524;48.132;8.518;2022-09-16T14:42:48;3.75;;;2.67;;
20725;SDS011;10524;48.132;8.518;2022-09-16T14:45:24;3.53;;;3.03;;
20725;SDS011;10524;48.132;8.518;2022-09-16T14:47:51;6.38;;;3.17;;
20725;SDS011;10524;48.132;8.518;2022-09-16T14:50:23;5.35;;;2.90;;
20725;SDS011;10524;48.132;8.518;2022-09-16T14:52:56;4.95;;;2.90;;
20725;SDS011;10524;48.132;8.518;2022-09-16T14:55:24;4.82;;;3.00;;
20725;SDS011;10524;48.132;8.518;2022-09-16T14:57:54;4.30;;;2.55;;
20725;SDS011;10524;48.132;8.518;2022-09-16T15:00:20;7.47;;;2.45;;
20725;SDS011;10524;48.132;8.518;2022-09-16T15:07:38;3.35;;;1.95;;
20725;SDS011;10524;48.132;8.518;2022-09-16T15:10:16;4.20;;;2.25;;
20725;SDS011;10524;48.132;8.518;2022-09-16T15:12:51;5.38;;;2.55;;
20725;SDS011;10524;48.132;8.518;2022-09-16T15:17:53;3.63;;;2.20;;
20725;SDS011;10524;48.132;8.518;2022-09-16T15:20:32;5.82;;;2.30;;
20725;SDS011;10524;48.132;8.518;2022-09-16T15:23:04;5.05;;;2.90;;
20725;SDS011;10524;48.132;8.518;2022-09-16T15:25:32;6.20;;;2.53;;
20725;SDS011;10524;48.132;8.518;2022-09-16T15:30:47;4.97;;;2.50;;
20725;SDS011;10524;48.132;8.518;2022-09-16T15:33:34;3.88;;;2.40;;
20725;SDS011;10524;48.132;8.518;2022-09-16T15:36:01;4.20;;;2.80;;
20725;SDS011;10524;48.132;8.518;2022-09-16T15:38:29;5.93;;;2.53;;
20725;SDS011;10524;48.132;8.518;2022-09-16T15:41:09;3.45;;;2.47;;
20725;SDS011;10524;48.132;8.518;2022-09-16T15:43:38;8.27;;;5.68;;
20725;SDS011;10524;48.132;8.518;2022-09-16T15:46:14;5.38;;;2.80;;
20725;SDS011;10524;48.132;8.518;2022-09-16T15:48:54;6.93;;;3.22;;
20725;SDS011;10524;48.132;8.518;2022-09-16T15:51:33;6.32;;;3.00;;
20725;SDS011;10524;48.132;8.518;2022-09-16T15:54:24;6.50;;;3.35;;
20725;SDS011;10524;48.132;8.518;2022-09-16T15:59:36;8.90;;;3.22;;
20725;SDS011;10524;48.132;8.518;2022-09-16T16:05:06;4.50;;;2.42;;
20725;SDS011;10524;48.132;8.518;2022-09-16T16:07:48;5.22;;;2.30;;
20725;SDS011;10524;48.132;8.518;2022-09-16T16:10:25;7.97;;;4.30;;
20725;SDS011;10524;48.132;8.518;2022-09-16T16:12:55;6.60;;;2.88;;
20725;SDS011;10524;48.132;8.518;2022-09-16T16:15:25;6.10;;;3.72;;
20725;SDS011;10524;48.132;8.518;2022-09-16T16:17:53;6.88;;;3.55;;
20725;SDS011;10524;48.132;8.518;2022-09-16T16:20:22;9.00;;;4.70;;
20725;SDS011;10524;48.132;8.518;2022-09-16T16:22:49;11.95;;;6.63;;
20725;SDS011;10524;48.132;8.518;2022-09-16T16:25:15;9.82;;;6.60;;
20725;SDS011;10524;48.132;8.518;2022-09-16T16:27:40;5.10;;;2.88;;
20725;SDS011;10524;48.132;8.518;2022-09-16T16:30:06;5.53;;;2.92;;
20725;SDS011;10524;48.132;8.518;2022-09-16T16:32:33;7.35;;;4.75;;
20725;SDS011;10524;48.132;8.518;2022-09-16T16:34:59;8.05;;;3.83;;
20725;SDS011;10524;48.132;8.518;2022-09-16T16:37:25;6.10;;;3.40;;
20725;SDS011;10524;48.132;8.518;2022-09-16T16:39:51;4.30;;;3.00;;
20725;SDS011;10524;48.132;8.518;2022-09-16T16:42:17;3.88;;;2.90;;
20725;SDS011;10524;48.132;8.518;2022-09-16T16:44:43;7.38;;;3.22;;
20725;SDS011;10524;48.132;8.518;2022-09-16T16:47:09;8.23;;;4.57;;
20725;SDS011;10524;48.132;8.518;2022-09-16T16:49:35;5.28;;;3.70;;
20725;SDS011;10524;48.132;8.518;2022-09-16T16:52:02;7.43;;;4.20;;
20725;SDS011;10524;48.132;8.518;2022-09-16T16:54:29;6.63;;;4.03;;
20725;SDS011;10524;48.132;8.518;2022-09-16T16:56:55;6.20;;;3.63;;
20725;SDS011;10524;48.132;8.518;2022-09-16T16:59:22;5.18;;;3.35;;
20725;SDS011;10524;48.132;8.518;2022-09-16T17:01:52;4.20;;;2.95;;
20725;SDS011;10524;48.132;8.518;2022-09-16T17:04:18;9.00;;;3.50;;
20725;SDS011;10524;48.132;8.518;2022-09-16T17:06:45;5.72;;;3.03;;
20725;SDS011;10524;48.132;8.518;2022-09-16T17:09:11;5.20;;;3.20;;
20725;SDS011;10524;48.132;8.518;2022-09-16T17:11:48;5.28;;;3.35;;
20725;SDS011;10524;48.132;8.518;2022-09-16T17:14:18;6.03;;;2.63;;
20725;SDS011;10524;48.132;8.518;2022-09-16T17:16:46;6.50;;;2.80;;
20725;SDS011;10524;48.132;8.518;2022-09-16T17:19:12;5.53;;;2.92;;
20725;SDS011;10524;48.132;8.518;2022-09-16T17:21:38;6.22;;;3.00;;
20725;SDS011;10524;48.132;8.518;2022-09-16T17:24:05;4.13;;;2.40;;
20725;SDS011;10524;48.132;8.518;2022-09-16T17:26:31;6.85;;;2.72;;
20725;SDS011;10524;48.132;8.518;2022-09-16T17:28:57;6.40;;;2.60;;
20725;SDS011;10524;48.132;8.518;2022-09-16T17:31:24;5.25;;;2.33;;
20725;SDS011;10524;48.132;8.518;2022-09-16T17:33:54;4.63;;;2.80;;
20725;SDS011;10524;48.132;8.518;2022-09-16T17:36:21;9.60;;;2.97;;
20725;SDS011;10524;48.132;8.518;2022-09-16T17:38:55;4.35;;;2.67;;
20725;SDS011;10524;48.132;8.518;2022-09-16T17:41:21;5.22;;;2.72;;
20725;SDS011;10524;48.132;8.518;2022-09-16T17:43:47;4.32;;;2.63;;
20725;SDS011;10524;48.132;8.518;2022-09-16T17:46:14;5.93;;;3.20;;
20725;SDS011;10524;48.132;8.518;2022-09-16T17:48:42;6.88;;;3.20;;
20725;SDS011;10524;48.132;8.518;2022-09-16T17:51:08;3.70;;;2.92;;
20725;SDS011;10524;48.132;8.518;2022-09-16T17:53:34;5.25;;;3.08;;
20725;SDS011;10524;48.132;8.518;2022-09-16T17:56:07;4.65;;;3.20;;
20725;SDS011;10524;48.132;8.518;2022-09-16T17:58:38;5.22;;;3.30;;
20725;SDS011;10524;48.132;8.518;2022-09-16T18:03:37;5.13;;;3.30;;
20725;SDS011;10524;48.132;8.518;2022-09-16T18:06:04;8.52;;;3.72;;
20725;SDS011;10524;48.132;8.518;2022-09-16T18:08:32;4.70;;;3.67;;
20725;SDS011;10524;48.132;8.518;2022-09-16T18:10:57;6.10;;;2.50;;
20725;SDS011;10524;48.132;8.518;2022-09-16T18:13:23;4.13;;;1.98;;
20725;SDS011;10524;48.132;8.518;2022-09-16T18:15:49;7.07;;;1.90;;
20725;SDS011;10524;48.132;8.518;2022-09-16T18:18:14;2.10;;;1.90;;
20725;SDS011;10524;48.132;8.518;2022-09-16T18:20:42;4.40;;;2.40;;
20725;SDS011;10524;48.132;8.518;2022-09-16T18:23:08;4.93;;;2.25;;
20725;SDS011;10524;48.132;8.518;2022-09-16T18:25:36;4.60;;;2.45;;
20725;SDS011;10524;48.132;8.518;2022-09-16T18:28:02;3.63;;;2.58;;